KTRM/TRM METAR and TAF weather

Enter ICAO airport designator
Station Type Date Time Source
KTRM METAR 2021/09/28 03:52 UTC NOAA

KTRM 280352Z AUTO 32010KT 10SM CLR 27/14 A2977 RMK AO2 SLP084 T02720139


Station Type Date Time Source
KTRM Decoded METAR 2021/09/28 03:52 UTC NOAA

Palm Springs, Jacqueline Cochran Regional Airport, CA, United States (KTRM) 33-37-36N 116-09-34W
Sep 27, 2021 - 11:52 PM EDT / 2021.09.28 0352 UTC
Wind: from the NW (320 degrees) at 12 MPH (10 KT):0
Visibility: 10 mile(s):0
Sky conditions: clear
Temperature: 81.0 F (27.2 C)
Dew Point: 57.0 F (13.9 C)
Relative Humidity: 44%
Pressure (altimeter): 29.77 in. Hg (1008 hPa)
ob: KTRM 280352Z AUTO 32010KT 10SM CLR 27/14 A2977 RMK AO2 SLP084 T02720139
cycle: 4

Station Type Date Time Source
KTRM TAF 2021/09/27 18:42 UTC NOAA

TAF KTRM 271740Z 2718/2818 14007KT P6SM FEW150
FM280300 33009KT P6SM FEW150

Example: see airport list